DLH4HK EDDF-EKCH
Flight info
| Callsign | DLH4HK |
|---|---|
| Flight time | 1h 8m |
| Altitude | 39000 |
| Route | MARUN3W/25C MARUN Y150 TOLGI DCT SAS DCT MAKEL/N0429F370 N851 GESKA Z711 MONAK |
| Aircraft | A320/M-SDE2E3FGIJ1LORWXYZ/HB1 |
Departure
| Time | 2026-05-07 17:11 |
|---|---|
| Airport | Frankfurt Main Airport (EDDF) |
Arrival
| Time | 2026-05-07 18:19 |
|---|---|
| Airport | Copenhagen Kastrup Airport (EKCH) |
| Time | Latitude | Longitude | Altitude | Speed | Heading |
|---|---|---|---|---|---|
| 2026-05-07 16:14 | 50.04923 | 8.58946 | 363 ft | 0 kts | 160° |
| 2026-05-07 17:00 | 50.04926 | 8.58944 | 362 ft | 3 kts | 160° |
| 2026-05-07 17:00 | 50.04951 | 8.58929 | 364 ft | 4 kts | 160° |
| 2026-05-07 17:00 | 50.04974 | 8.58916 | 365 ft | 4 kts | 163° |
| 2026-05-07 17:01 | 50.04991 | 8.58912 | 363 ft | 4 kts | 261° |
| 2026-05-07 17:01 | 50.04991 | 8.58952 | 363 ft | 4 kts | 255° |
| 2026-05-07 17:01 | 50.04999 | 8.58989 | 360 ft | 4 kts | 252° |
| 2026-05-07 17:01 | 50.05002 | 8.59003 | 360 ft | 1 kts | 250° |
| 2026-05-07 17:05 | 50.05002 | 8.59002 | 360 ft | 2 kts | 250° |
| 2026-05-07 17:05 | 50.04995 | 8.58964 | 361 ft | 8 kts | 254° |
| 2026-05-07 17:05 | 50.04973 | 8.58857 | 364 ft | 10 kts | 251° |
| 2026-05-07 17:06 | 50.04950 | 8.58759 | 361 ft | 9 kts | 247° |
| 2026-05-07 17:06 | 50.04919 | 8.58690 | 360 ft | 6 kts | 205° |
| 2026-05-07 17:06 | 50.04889 | 8.58680 | 361 ft | 2 kts | 189° |
| 2026-05-07 17:06 | 50.04884 | 8.58682 | 362 ft | 1 kts | 164° |
| 2026-05-07 17:07 | 50.04826 | 8.58716 | 367 ft | 14 kts | 158° |
| 2026-05-07 17:07 | 50.04735 | 8.58767 | 370 ft | 14 kts | 169° |
| 2026-05-07 17:07 | 50.04652 | 8.58760 | 370 ft | 5 kts | 187° |
| 2026-05-07 17:07 | 50.04651 | 8.58760 | 370 ft | 0 kts | 187° |
| 2026-05-07 17:08 | 50.04650 | 8.58759 | 370 ft | 2 kts | 187° |
| 2026-05-07 17:08 | 50.04595 | 8.58730 | 371 ft | 14 kts | 214° |
| 2026-05-07 17:08 | 50.04507 | 8.58618 | 371 ft | 16 kts | 221° |
| 2026-05-07 17:09 | 50.04480 | 8.58558 | 370 ft | 0 kts | 248° |
| 2026-05-07 17:10 | 50.04480 | 8.58556 | 370 ft | 1 kts | 248° |
| 2026-05-07 17:10 | 50.04425 | 8.58339 | 372 ft | 58 kts | 249° |
| 2026-05-07 17:10 | 50.04191 | 8.57382 | 368 ft | 127 kts | 250° |
| 2026-05-07 17:10 | 50.03814 | 8.55861 | 609 ft | 160 kts | 248° |
| 2026-05-07 17:11 | 50.03433 | 8.54211 | 1497 ft | 165 kts | 253° |
| 2026-05-07 17:11 | 50.03031 | 8.52494 | 2122 ft | 181 kts | 253° |
| 2026-05-07 17:11 | 50.02528 | 8.50552 | 2687 ft | 199 kts | 242° |
| 2026-05-07 17:11 | 50.01594 | 8.48930 | 3474 ft | 205 kts | 217° |
| 2026-05-07 17:12 | 50.00309 | 8.48042 | 4262 ft | 208 kts | 194° |
| 2026-05-07 17:12 | 49.98874 | 8.47704 | 5041 ft | 208 kts | 191° |
| 2026-05-07 17:12 | 49.97434 | 8.47388 | 5626 ft | 213 kts | 191° |
| 2026-05-07 17:12 | 49.95982 | 8.47023 | 5824 ft | 210 kts | 197° |
| 2026-05-07 17:13 | 49.94526 | 8.46350 | 6026 ft | 229 kts | 199° |
| 2026-05-07 17:13 | 49.92955 | 8.45601 | 6213 ft | 240 kts | 202° |
| 2026-05-07 17:13 | 49.91563 | 8.44202 | 6398 ft | 240 kts | 229° |
| 2026-05-07 17:13 | 49.90774 | 8.41983 | 6712 ft | 245 kts | 256° |
| 2026-05-07 17:14 | 49.90749 | 8.39347 | 7716 ft | 248 kts | 281° |
| 2026-05-07 17:14 | 49.91514 | 8.36935 | 8703 ft | 256 kts | 309° |
| 2026-05-07 17:14 | 49.92981 | 8.35337 | 9658 ft | 265 kts | 333° |
| 2026-05-07 17:14 | 49.94747 | 8.34156 | 10206 ft | 287 kts | 335° |
| 2026-05-07 17:15 | 49.96663 | 8.32917 | 10587 ft | 311 kts | 335° |
| 2026-05-07 17:15 | 49.98719 | 8.31601 | 11175 ft | 325 kts | 335° |
| 2026-05-07 17:15 | 50.00820 | 8.30257 | 12003 ft | 330 kts | 335° |
| 2026-05-07 17:15 | 50.03030 | 8.29133 | 12741 ft | 338 kts | 346° |
| 2026-05-07 17:16 | 50.05349 | 8.28775 | 12986 ft | 341 kts | 360° |
| 2026-05-07 17:16 | 50.07703 | 8.29282 | 13048 ft | 343 kts | 13° |
| 2026-05-07 17:16 | 50.09972 | 8.30452 | 13055 ft | 344 kts | 18° |
| 2026-05-07 17:16 | 50.12236 | 8.31660 | 13050 ft | 344 kts | 17° |
| 2026-05-07 17:17 | 50.14511 | 8.32857 | 13279 ft | 349 kts | 17° |
| 2026-05-07 17:17 | 50.16823 | 8.34067 | 14166 ft | 350 kts | 17° |
| 2026-05-07 17:17 | 50.19141 | 8.35278 | 14936 ft | 353 kts | 17° |
| 2026-05-07 17:17 | 50.21454 | 8.36488 | 15669 ft | 357 kts | 17° |
| 2026-05-07 17:18 | 50.23821 | 8.37733 | 16393 ft | 361 kts | 17° |
| 2026-05-07 17:18 | 50.26207 | 8.38990 | 17112 ft | 365 kts | 17° |
| 2026-05-07 17:18 | 50.28632 | 8.40268 | 17829 ft | 369 kts | 17° |
| 2026-05-07 17:18 | 50.31079 | 8.41563 | 18488 ft | 373 kts | 17° |
| 2026-05-07 17:19 | 50.33544 | 8.42893 | 19094 ft | 377 kts | 17° |
| 2026-05-07 17:19 | 50.36037 | 8.44257 | 19704 ft | 381 kts | 18° |
| 2026-05-07 17:19 | 50.38546 | 8.45637 | 20320 ft | 385 kts | 18° |
| 2026-05-07 17:19 | 50.41088 | 8.47034 | 20938 ft | 388 kts | 18° |
| 2026-05-07 17:20 | 50.43615 | 8.48425 | 21538 ft | 391 kts | 18° |
| 2026-05-07 17:20 | 50.46193 | 8.49843 | 22134 ft | 395 kts | 18° |
| 2026-05-07 17:20 | 50.48803 | 8.51246 | 22725 ft | 398 kts | 16° |
| 2026-05-07 17:20 | 50.51454 | 8.52566 | 23298 ft | 402 kts | 15° |
| 2026-05-07 17:21 | 50.54143 | 8.53837 | 23811 ft | 405 kts | 14° |
| 2026-05-07 17:21 | 50.56865 | 8.55093 | 24296 ft | 408 kts | 14° |
| 2026-05-07 17:21 | 50.59598 | 8.56355 | 24778 ft | 411 kts | 15° |
| 2026-05-07 17:21 | 50.62351 | 8.57642 | 25254 ft | 414 kts | 15° |
| 2026-05-07 17:22 | 50.65116 | 8.58958 | 25720 ft | 417 kts | 15° |
| 2026-05-07 17:22 | 50.67865 | 8.60280 | 26159 ft | 420 kts | 15° |
| 2026-05-07 17:22 | 50.70672 | 8.61644 | 26615 ft | 423 kts | 15° |
| 2026-05-07 17:22 | 50.73488 | 8.63019 | 27071 ft | 426 kts | 15° |
| 2026-05-07 17:23 | 50.76335 | 8.64403 | 27501 ft | 429 kts | 16° |
| 2026-05-07 17:23 | 50.79126 | 8.66098 | 27937 ft | 433 kts | 25° |
| 2026-05-07 17:23 | 50.81726 | 8.68525 | 28369 ft | 436 kts | 35° |
| 2026-05-07 17:23 | 50.84052 | 8.71636 | 28790 ft | 439 kts | 45° |
| 2026-05-07 17:24 | 50.86032 | 8.75321 | 29211 ft | 442 kts | 53° |
| 2026-05-07 17:24 | 50.87868 | 8.79163 | 29624 ft | 444 kts | 53° |
| 2026-05-07 17:24 | 50.89743 | 8.83075 | 30029 ft | 447 kts | 53° |
| 2026-05-07 17:24 | 50.91626 | 8.87006 | 30384 ft | 450 kts | 53° |
| 2026-05-07 17:25 | 50.93521 | 8.90973 | 30738 ft | 453 kts | 53° |
| 2026-05-07 17:25 | 50.95424 | 8.94963 | 31086 ft | 455 kts | 53° |
| 2026-05-07 17:25 | 50.97339 | 8.98982 | 31425 ft | 457 kts | 53° |
| 2026-05-07 17:25 | 50.99263 | 9.03028 | 31880 ft | 459 kts | 53° |
| 2026-05-07 17:26 | 51.01177 | 9.07062 | 32340 ft | 457 kts | 53° |
| 2026-05-07 17:26 | 51.03065 | 9.11048 | 32799 ft | 456 kts | 53° |
| 2026-05-07 17:26 | 51.04968 | 9.15073 | 33258 ft | 456 kts | 53° |
| 2026-05-07 17:26 | 51.06870 | 9.19096 | 33712 ft | 455 kts | 52° |
| 2026-05-07 17:27 | 51.08930 | 9.22812 | 34127 ft | 454 kts | 43° |
| 2026-05-07 17:27 | 51.11398 | 9.26003 | 34462 ft | 453 kts | 33° |
| 2026-05-07 17:27 | 51.14146 | 9.28474 | 34782 ft | 452 kts | 23° |
| 2026-05-07 17:27 | 51.17104 | 9.30188 | 35078 ft | 451 kts | 13° |
| 2026-05-07 17:28 | 51.20164 | 9.31283 | 35372 ft | 451 kts | 10° |
| 2026-05-07 17:28 | 51.23225 | 9.32330 | 35675 ft | 451 kts | 11° |
| 2026-05-07 17:28 | 51.26302 | 9.33394 | 35981 ft | 452 kts | 11° |
| 2026-05-07 17:28 | 51.29306 | 9.34445 | 36256 ft | 452 kts | 11° |
| 2026-05-07 17:29 | 51.32365 | 9.35519 | 36538 ft | 453 kts | 11° |
| 2026-05-07 17:29 | 51.35459 | 9.36601 | 36808 ft | 453 kts | 11° |
| 2026-05-07 17:29 | 51.38514 | 9.37662 | 37081 ft | 454 kts | 11° |
| 2026-05-07 17:29 | 51.41599 | 9.38732 | 37342 ft | 454 kts | 11° |
| 2026-05-07 17:30 | 51.44639 | 9.39792 | 37593 ft | 455 kts | 11° |
| 2026-05-07 17:30 | 51.47689 | 9.40859 | 37848 ft | 455 kts | 11° |
| 2026-05-07 17:30 | 51.50591 | 9.42054 | 38083 ft | 457 kts | 19° |
| 2026-05-07 17:30 | 51.53360 | 9.43994 | 38317 ft | 458 kts | 24° |
| 2026-05-07 17:31 | 51.56202 | 9.46103 | 38552 ft | 459 kts | 24° |
| 2026-05-07 17:31 | 51.58986 | 9.48178 | 38766 ft | 459 kts | 24° |
| 2026-05-07 17:31 | 51.61881 | 9.50344 | 38959 ft | 459 kts | 24° |
| 2026-05-07 17:31 | 51.64775 | 9.52515 | 39062 ft | 461 kts | 24° |
| 2026-05-07 17:32 | 51.70594 | 9.56897 | 39085 ft | 461 kts | 24° |
| 2026-05-07 17:32 | 51.75417 | 9.60543 | 39093 ft | 461 kts | 24° |
| 2026-05-07 17:33 | 51.82203 | 9.65680 | 39088 ft | 461 kts | 24° |
| 2026-05-07 17:33 | 51.87967 | 9.70039 | 39091 ft | 460 kts | 24° |
| 2026-05-07 17:34 | 51.93767 | 9.74443 | 39096 ft | 461 kts | 24° |
| 2026-05-07 17:34 | 51.99564 | 9.78866 | 39111 ft | 461 kts | 24° |
| 2026-05-07 17:35 | 52.05368 | 9.83314 | 39117 ft | 461 kts | 24° |
| 2026-05-07 17:35 | 52.11132 | 9.87723 | 39128 ft | 461 kts | 24° |
| 2026-05-07 17:36 | 52.16939 | 9.92188 | 39116 ft | 461 kts | 24° |
| 2026-05-07 17:36 | 52.22733 | 9.96666 | 39120 ft | 461 kts | 24° |
| 2026-05-07 17:37 | 52.28536 | 10.01148 | 39119 ft | 461 kts | 24° |
| 2026-05-07 17:37 | 52.34286 | 10.05612 | 39119 ft | 460 kts | 24° |
| 2026-05-07 17:38 | 52.40068 | 10.10121 | 39120 ft | 460 kts | 24° |
| 2026-05-07 17:38 | 52.45847 | 10.14634 | 39123 ft | 460 kts | 24° |
| 2026-05-07 17:39 | 52.51620 | 10.19155 | 39126 ft | 460 kts | 24° |
| 2026-05-07 17:39 | 52.57392 | 10.23675 | 39134 ft | 460 kts | 24° |
| 2026-05-07 17:40 | 52.63120 | 10.28179 | 39123 ft | 459 kts | 24° |
| 2026-05-07 17:40 | 52.68882 | 10.32739 | 39118 ft | 459 kts | 25° |
| 2026-05-07 17:41 | 52.74631 | 10.37290 | 39117 ft | 459 kts | 24° |
| 2026-05-07 17:41 | 52.80386 | 10.41861 | 39118 ft | 458 kts | 25° |
| 2026-05-07 17:42 | 52.86092 | 10.46406 | 39123 ft | 458 kts | 25° |
| 2026-05-07 17:42 | 52.91831 | 10.50983 | 39123 ft | 458 kts | 25° |
| 2026-05-07 17:43 | 52.97566 | 10.55580 | 39111 ft | 458 kts | 25° |
| 2026-05-07 17:43 | 53.03292 | 10.60195 | 39108 ft | 458 kts | 25° |
| 2026-05-07 17:44 | 53.08053 | 10.64036 | 39100 ft | 457 kts | 25° |
| 2026-05-07 17:44 | 53.14707 | 10.69414 | 39099 ft | 457 kts | 25° |
| 2026-05-07 17:45 | 53.20418 | 10.74043 | 39102 ft | 457 kts | 25° |
| 2026-05-07 17:45 | 53.26136 | 10.78688 | 39023 ft | 457 kts | 25° |
| 2026-05-07 17:46 | 53.30873 | 10.82547 | 39038 ft | 455 kts | 25° |
| 2026-05-07 17:46 | 53.37478 | 10.87938 | 39063 ft | 454 kts | 25° |
| 2026-05-07 17:47 | 53.42224 | 10.91841 | 39066 ft | 453 kts | 25° |
| 2026-05-07 17:47 | 53.47843 | 10.96467 | 39062 ft | 453 kts | 25° |
| 2026-05-07 17:48 | 53.53495 | 11.01140 | 39078 ft | 453 kts | 25° |
| 2026-05-07 17:48 | 53.59153 | 11.05835 | 39087 ft | 453 kts | 25° |
| 2026-05-07 17:49 | 53.64806 | 11.10515 | 39090 ft | 453 kts | 25° |
| 2026-05-07 17:49 | 53.67658 | 11.12881 | 38952 ft | 462 kts | 25° |
| 2026-05-07 17:49 | 53.70567 | 11.15302 | 38741 ft | 469 kts | 25° |
| 2026-05-07 17:50 | 53.73457 | 11.17716 | 38579 ft | 470 kts | 25° |
| 2026-05-07 17:50 | 53.76385 | 11.20169 | 38442 ft | 470 kts | 25° |
| 2026-05-07 17:50 | 53.79316 | 11.22628 | 38299 ft | 469 kts | 26° |
| 2026-05-07 17:50 | 53.82232 | 11.25076 | 38162 ft | 467 kts | 25° |
| 2026-05-07 17:51 | 53.85138 | 11.27516 | 38026 ft | 466 kts | 25° |
| 2026-05-07 17:51 | 53.88037 | 11.29953 | 37792 ft | 464 kts | 26° |
| 2026-05-07 17:51 | 53.90916 | 11.32373 | 37438 ft | 460 kts | 25° |
| 2026-05-07 17:51 | 53.93767 | 11.34772 | 37102 ft | 456 kts | 26° |
| 2026-05-07 17:52 | 53.96599 | 11.37161 | 36756 ft | 451 kts | 26° |
| 2026-05-07 17:52 | 53.99356 | 11.39494 | 36427 ft | 447 kts | 26° |
| 2026-05-07 17:52 | 54.02127 | 11.41844 | 36095 ft | 442 kts | 26° |
| 2026-05-07 17:52 | 54.04861 | 11.44170 | 35783 ft | 437 kts | 26° |
| 2026-05-07 17:53 | 54.07571 | 11.46476 | 35459 ft | 433 kts | 26° |
| 2026-05-07 17:53 | 54.10247 | 11.48754 | 35147 ft | 428 kts | 26° |
| 2026-05-07 17:53 | 54.12891 | 11.51003 | 34831 ft | 423 kts | 26° |
| 2026-05-07 17:53 | 54.15511 | 11.53232 | 34526 ft | 418 kts | 26° |
| 2026-05-07 17:54 | 54.18097 | 11.55435 | 34222 ft | 413 kts | 27° |
| 2026-05-07 17:54 | 54.20652 | 11.57620 | 33889 ft | 409 kts | 27° |
| 2026-05-07 17:54 | 54.23183 | 11.59789 | 33539 ft | 406 kts | 27° |
| 2026-05-07 17:54 | 54.25696 | 11.61950 | 33168 ft | 403 kts | 27° |
| 2026-05-07 17:55 | 54.28161 | 11.64075 | 32821 ft | 401 kts | 27° |
| 2026-05-07 17:55 | 54.30638 | 11.66213 | 32478 ft | 398 kts | 27° |
| 2026-05-07 17:55 | 54.33107 | 11.68343 | 32137 ft | 396 kts | 27° |
| 2026-05-07 17:55 | 54.35569 | 11.70469 | 31794 ft | 395 kts | 27° |
| 2026-05-07 17:56 | 54.38014 | 11.72582 | 31452 ft | 393 kts | 27° |
| 2026-05-07 17:56 | 54.40446 | 11.74687 | 31135 ft | 391 kts | 27° |
| 2026-05-07 17:56 | 54.42864 | 11.76786 | 30801 ft | 389 kts | 27° |
| 2026-05-07 17:56 | 54.45273 | 11.78884 | 30478 ft | 388 kts | 27° |
| 2026-05-07 17:57 | 54.47675 | 11.80975 | 30162 ft | 386 kts | 27° |
| 2026-05-07 17:57 | 54.50067 | 11.83058 | 29793 ft | 384 kts | 27° |
| 2026-05-07 17:57 | 54.52427 | 11.85117 | 28947 ft | 390 kts | 26° |
| 2026-05-07 17:57 | 54.54874 | 11.87249 | 28015 ft | 397 kts | 26° |
| 2026-05-07 17:58 | 54.57339 | 11.89393 | 27328 ft | 396 kts | 26° |
| 2026-05-07 17:58 | 54.59792 | 11.91531 | 26738 ft | 394 kts | 26° |
| 2026-05-07 17:58 | 54.62195 | 11.93748 | 26121 ft | 389 kts | 32° |
| 2026-05-07 17:58 | 54.64442 | 11.96290 | 25173 ft | 384 kts | 33° |
| 2026-05-07 17:59 | 54.66649 | 11.98836 | 24452 ft | 375 kts | 33° |
| 2026-05-07 17:59 | 54.68772 | 12.01302 | 23989 ft | 361 kts | 33° |
| 2026-05-07 17:59 | 54.70820 | 12.03682 | 23481 ft | 348 kts | 33° |
| 2026-05-07 17:59 | 54.72793 | 12.05976 | 23000 ft | 335 kts | 33° |
| 2026-05-07 18:00 | 54.74666 | 12.08154 | 22590 ft | 323 kts | 33° |
| 2026-05-07 18:00 | 54.76536 | 12.10254 | 22268 ft | 319 kts | 29° |
| 2026-05-07 18:00 | 54.78469 | 12.12169 | 22206 ft | 320 kts | 28° |
| 2026-05-07 18:00 | 54.80416 | 12.14034 | 22124 ft | 320 kts | 27° |
| 2026-05-07 18:01 | 54.82369 | 12.15877 | 22050 ft | 319 kts | 27° |
| 2026-05-07 18:01 | 54.84319 | 12.17708 | 21974 ft | 319 kts | 27° |
| 2026-05-07 18:01 | 54.86328 | 12.19591 | 21730 ft | 336 kts | 27° |
| 2026-05-07 18:01 | 54.88399 | 12.21541 | 21441 ft | 341 kts | 27° |
| 2026-05-07 18:02 | 54.92530 | 12.25467 | 20876 ft | 340 kts | 28° |
| 2026-05-07 18:02 | 54.94594 | 12.27443 | 20593 ft | 338 kts | 28° |
| 2026-05-07 18:02 | 54.96654 | 12.29418 | 20324 ft | 337 kts | 28° |
| 2026-05-07 18:03 | 54.98708 | 12.31387 | 20043 ft | 336 kts | 28° |
| 2026-05-07 18:03 | 55.00725 | 12.33321 | 19663 ft | 335 kts | 28° |
| 2026-05-07 18:03 | 55.02787 | 12.35299 | 19261 ft | 333 kts | 28° |
| 2026-05-07 18:03 | 55.04813 | 12.37247 | 18870 ft | 332 kts | 28° |
| 2026-05-07 18:04 | 55.06826 | 12.39188 | 18490 ft | 330 kts | 28° |
| 2026-05-07 18:04 | 55.08806 | 12.41103 | 18076 ft | 329 kts | 28° |
| 2026-05-07 18:04 | 55.10799 | 12.43026 | 17512 ft | 325 kts | 28° |
| 2026-05-07 18:04 | 55.12808 | 12.44960 | 16516 ft | 330 kts | 28° |
| 2026-05-07 18:05 | 55.14760 | 12.46844 | 16309 ft | 311 kts | 28° |
| 2026-05-07 18:05 | 55.16608 | 12.48634 | 15975 ft | 298 kts | 28° |
| 2026-05-07 18:05 | 55.18388 | 12.50361 | 15634 ft | 288 kts | 28° |
| 2026-05-07 18:05 | 55.20135 | 12.52057 | 15281 ft | 287 kts | 28° |
| 2026-05-07 18:06 | 55.21876 | 12.53746 | 14935 ft | 285 kts | 28° |
| 2026-05-07 18:06 | 55.23605 | 12.55423 | 14606 ft | 284 kts | 28° |
| 2026-05-07 18:06 | 55.25338 | 12.57109 | 14258 ft | 286 kts | 28° |
| 2026-05-07 18:06 | 55.27079 | 12.58806 | 13901 ft | 287 kts | 28° |
| 2026-05-07 18:07 | 55.28826 | 12.60512 | 13525 ft | 288 kts | 28° |
| 2026-05-07 18:07 | 55.30574 | 12.62216 | 13156 ft | 287 kts | 28° |
| 2026-05-07 18:07 | 55.32295 | 12.63894 | 12812 ft | 286 kts | 28° |
| 2026-05-07 18:07 | 55.34035 | 12.65590 | 12457 ft | 285 kts | 29° |
| 2026-05-07 18:08 | 55.35769 | 12.67280 | 12091 ft | 285 kts | 29° |
| 2026-05-07 18:08 | 55.37499 | 12.68970 | 11725 ft | 284 kts | 29° |
| 2026-05-07 18:08 | 55.39225 | 12.70661 | 11360 ft | 284 kts | 30° |
| 2026-05-07 18:08 | 55.40946 | 12.72358 | 10979 ft | 283 kts | 30° |
| 2026-05-07 18:09 | 55.42643 | 12.74031 | 10612 ft | 283 kts | 30° |
| 2026-05-07 18:09 | 55.44384 | 12.75744 | 10218 ft | 283 kts | 30° |
| 2026-05-07 18:09 | 55.46101 | 12.77431 | 9822 ft | 282 kts | 30° |
| 2026-05-07 18:09 | 55.47810 | 12.79112 | 9413 ft | 281 kts | 30° |
| 2026-05-07 18:10 | 55.49511 | 12.80784 | 9009 ft | 279 kts | 30° |
| 2026-05-07 18:10 | 55.51178 | 12.82429 | 8613 ft | 277 kts | 30° |
| 2026-05-07 18:10 | 55.52853 | 12.84087 | 8214 ft | 275 kts | 30° |
| 2026-05-07 18:10 | 55.54517 | 12.85737 | 7796 ft | 274 kts | 30° |
| 2026-05-07 18:11 | 55.56174 | 12.87381 | 7375 ft | 272 kts | 30° |
| 2026-05-07 18:11 | 55.57825 | 12.89016 | 6948 ft | 272 kts | 30° |
| 2026-05-07 18:11 | 55.59469 | 12.90645 | 6532 ft | 270 kts | 29° |
| 2026-05-07 18:11 | 55.61108 | 12.92270 | 6105 ft | 269 kts | 29° |
| 2026-05-07 18:12 | 55.62726 | 12.93878 | 5640 ft | 263 kts | 29° |
| 2026-05-07 18:12 | 55.64280 | 12.95427 | 5221 ft | 250 kts | 29° |
| 2026-05-07 18:12 | 55.65743 | 12.96889 | 4956 ft | 233 kts | 28° |
| 2026-05-07 18:12 | 55.67129 | 12.98273 | 4487 ft | 226 kts | 28° |
| 2026-05-07 18:13 | 55.68464 | 12.99601 | 4230 ft | 222 kts | 28° |
| 2026-05-07 18:13 | 55.69808 | 13.00943 | 3678 ft | 222 kts | 28° |
| 2026-05-07 18:13 | 55.71151 | 13.02285 | 3151 ft | 221 kts | 28° |
| 2026-05-07 18:13 | 55.72576 | 13.03108 | 3007 ft | 221 kts | 359° |
| 2026-05-07 18:14 | 55.74006 | 13.02388 | 3007 ft | 212 kts | 326° |
| 2026-05-07 18:14 | 55.75122 | 13.00697 | 3008 ft | 211 kts | 317° |
| 2026-05-07 18:14 | 55.76165 | 12.98856 | 3013 ft | 212 kts | 315° |
| 2026-05-07 18:14 | 55.77196 | 12.96985 | 3009 ft | 212 kts | 312° |
| 2026-05-07 18:15 | 55.77838 | 12.94668 | 3011 ft | 213 kts | 279° |
| 2026-05-07 18:15 | 55.77658 | 12.92110 | 3009 ft | 215 kts | 250° |
| 2026-05-07 18:15 | 55.76827 | 12.89901 | 3014 ft | 218 kts | 231° |
| 2026-05-07 18:15 | 55.75840 | 12.87863 | 3011 ft | 218 kts | 231° |
| 2026-05-07 18:16 | 55.74826 | 12.85869 | 3010 ft | 218 kts | 224° |
| 2026-05-07 18:16 | 55.73680 | 12.84097 | 3009 ft | 219 kts | 222° |
| 2026-05-07 18:16 | 55.72560 | 12.82359 | 2904 ft | 211 kts | 223° |
| 2026-05-07 18:16 | 55.71433 | 12.80598 | 2478 ft | 220 kts | 223° |
| 2026-05-07 18:17 | 55.70274 | 12.78788 | 2131 ft | 223 kts | 223° |
| 2026-05-07 18:17 | 55.69125 | 12.76998 | 1803 ft | 216 kts | 223° |
| 2026-05-07 18:17 | 55.68040 | 12.75311 | 1520 ft | 198 kts | 223° |
| 2026-05-07 18:17 | 55.67049 | 12.73770 | 1277 ft | 182 kts | 223° |
| 2026-05-07 18:18 | 55.66138 | 12.72352 | 1024 ft | 171 kts | 223° |
| 2026-05-07 18:18 | 55.65282 | 12.71021 | 807 ft | 155 kts | 223° |
| 2026-05-07 18:18 | 55.64511 | 12.69826 | 570 ft | 141 kts | 221° |
| 2026-05-07 18:18 | 55.63806 | 12.68721 | 351 ft | 130 kts | 221° |
| 2026-05-07 18:19 | 55.63160 | 12.67709 | 200 ft | 119 kts | 220° |
| 2026-05-07 18:19 | 55.62552 | 12.66770 | 67 ft | 113 kts | 220° |
| 2026-05-07 18:19 | 55.62012 | 12.65939 | 19 ft | 86 kts | 221° |
| 2026-05-07 18:19 | 55.61712 | 12.65491 | 19 ft | 23 kts | 220° |
| 2026-05-07 18:20 | 55.61609 | 12.65236 | 17 ft | 27 kts | 256° |
| 2026-05-07 18:20 | 55.61642 | 12.64959 | 18 ft | 22 kts | 303° |
| 2026-05-07 18:20 | 55.61763 | 12.64801 | 20 ft | 22 kts | 342° |
| 2026-05-07 18:20 | 55.61825 | 12.64788 | 19 ft | 1 kts | 4° |
| 2026-05-07 18:21 | 55.61854 | 12.64793 | 18 ft | 12 kts | 5° |
| 2026-05-07 18:21 | 55.61911 | 12.64843 | 17 ft | 0 kts | 30° |
| 2026-05-07 18:22 | 55.61912 | 12.64844 | 17 ft | 1 kts | 30° |
| 2026-05-07 18:22 | 55.61926 | 12.64858 | 17 ft | 6 kts | 29° |
| 2026-05-07 18:22 | 55.61998 | 12.64933 | 20 ft | 12 kts | 31° |
| 2026-05-07 18:22 | 55.62082 | 12.65030 | 21 ft | 12 kts | 33° |
| 2026-05-07 18:23 | 55.62116 | 12.65068 | 25 ft | 2 kts | 33° |
| 2026-05-07 18:23 | 55.62119 | 12.65072 | 25 ft | 0 kts | 32° |
| 2026-05-07 18:23 | 55.62133 | 12.65088 | 24 ft | 10 kts | 32° |
| 2026-05-07 18:24 | 55.62200 | 12.65036 | 24 ft | 11 kts | 313° |
| 2026-05-07 18:24 | 55.62243 | 12.64927 | 24 ft | 10 kts | 303° |
| 2026-05-07 18:24 | 55.62279 | 12.64830 | 28 ft | 9 kts | 303° |
| 2026-05-07 18:24 | 55.62316 | 12.64729 | 22 ft | 11 kts | 303° |
| 2026-05-07 18:25 | 55.62360 | 12.64610 | 20 ft | 12 kts | 302° |
| 2026-05-07 18:25 | 55.62403 | 12.64493 | 20 ft | 11 kts | 303° |
| 2026-05-07 18:25 | 55.62450 | 12.64376 | 18 ft | 12 kts | 307° |
| 2026-05-07 18:25 | 55.62494 | 12.64275 | 20 ft | 9 kts | 307° |
| 2026-05-07 18:26 | 55.62525 | 12.64198 | 23 ft | 7 kts | 304° |
| 2026-05-07 18:26 | 55.62551 | 12.64129 | 23 ft | 8 kts | 303° |
| 2026-05-07 18:26 | 55.62604 | 12.63980 | 24 ft | 20 kts | 301° |
| 2026-05-07 18:26 | 55.62689 | 12.63863 | 24 ft | 10 kts | 19° |
| 2026-05-07 18:27 | 55.62741 | 12.63919 | 25 ft | 9 kts | 29° |
| 2026-05-07 18:27 | 55.62792 | 12.63974 | 23 ft | 9 kts | 33° |
| 2026-05-07 18:27 | 55.62813 | 12.64061 | 22 ft | 6 kts | 96° |
| 2026-05-07 18:27 | 55.62799 | 12.64114 | 24 ft | 4 kts | 125° |
| 2026-05-07 18:28 | 55.62784 | 12.64155 | 22 ft | 4 kts | 122° |
| 2026-05-07 18:28 | 55.62780 | 12.64166 | 23 ft | 0 kts | 122° |